PWSweather.com
Personal Weather Stations
Station Observations
SHAHALMS1
Eftra, Falkenberg, HA

EftraFalkenberg, HA

Lat: 56.85, Lon: 12.65

Elevation: 140

Station Type:

http://hem.passagen.se/risarp101

High Low Average
Temperature 66.0°F18.9°C 47.8°F8.8°C 57.3°F14.1°C
Dew Point 56.7°F13.7°C 44.5°F6.9°C 51.4°F10.8°C
Winds 7.0 mph 11.3 kmh Calm Calm 1.0 mph NE1.6 kmh NE
Wind Gusts 16.5 mph26.6 kmh -- 3.0 mph4.8 kmh
Humidity 92% 64% 81%
Pressure 30.15 in1021.0 mb 30.07 in1018.3 mb -
Precipitation 0.00 in0.0 mm - -
Hour Temp Dew Point Humidity Winds Wind Gusts Pressure Precip Precip Rate Daily Precip Total
12:00 AM 52.3°F11.3°C 49.2°F9.6°C 89% 6.3 mph ESE10.1 kmh ESE 10.0 mph16.1 kmh 30.07 in1018.3 mb 0.00 in0.0 mm 0.00 in0.0 mm 0.00 in0.0 mm
12:10 AM 52.3°F11.3°C 49.2°F9.6°C 89% 5.6 mph ESE9.0 kmh ESE 10.0 mph16.1 kmh 30.09 in1019.0 mb 0.00 in0.0 mm 0.00 in0.0 mm 0.00 in0.0 mm
12:20 AM 52.3°F11.3°C 49.2°F9.6°C 89% 3.0 mph E4.8 kmh E 8.6 mph13.8 kmh 30.09 in1019.0 mb 0.00 in0.0 mm 0.00 in0.0 mm 0.00 in0.0 mm
12:30 AM 52.3°F11.3°C 49.2°F9.6°C 89% 6.5 mph ESE10.5 kmh ESE 9.7 mph15.6 kmh 30.07 in1018.3 mb 0.00 in0.0 mm 0.00 in0.0 mm 0.00 in0.0 mm
12:40 AM 52.2°F11.2°C 49.0°F9.4°C 89% 6.2 mph ESE10.0 kmh ESE 9.7 mph15.6 kmh 30.09 in1019.0 mb 0.00 in0.0 mm 0.00 in0.0 mm 0.00 in0.0 mm
12:50 AM 52.2°F11.2°C 48.7°F9.3°C 88% 5.8 mph ESE9.3 kmh ESE 10.4 mph16.7 kmh 30.09 in1019.0 mb 0.00 in0.0 mm 0.00 in0.0 mm 0.00 in0.0 mm
01:00 AM 51.8°F11.0°C 48.4°F9.1°C 88% 4.4 mph ESE7.1 kmh ESE 10.0 mph16.1 kmh 30.09 in1019.0 mb 0.00 in0.0 mm 0.00 in0.0 mm 0.00 in0.0 mm
01:10 AM 51.4°F10.8°C 48.0°F8.9°C 88% 6.4 mph E10.3 kmh E 9.3 mph15.0 kmh 30.09 in1019.0 mb 0.00 in0.0 mm 0.00 in0.0 mm 0.00 in0.0 mm
01:20 AM 51.1°F10.6°C 47.6°F8.7°C 88% 6.9 mph E11.1 kmh E 9.7 mph15.6 kmh 30.09 in1019.0 mb 0.00 in0.0 mm 0.00 in0.0 mm 0.00 in0.0 mm
01:30 AM 50.9°F10.5°C 47.5°F8.6°C 88% 6.3 mph ESE10.1 kmh ESE 10.0 mph16.1 kmh 30.09 in1019.0 mb 0.00 in0.0 mm 0.00 in0.0 mm 0.00 in0.0 mm
01:40 AM 50.9°F10.5°C 47.5°F8.6°C 88% 7.0 mph ESE11.3 kmh ESE 10.4 mph16.7 kmh 30.09 in1019.0 mb 0.00 in0.0 mm 0.00 in0.0 mm 0.00 in0.0 mm
01:50 AM 50.9°F10.5°C 47.8°F8.8°C 89% 6.2 mph SE10.0 kmh SE 10.0 mph16.1 kmh 30.09 in1019.0 mb 0.00 in0.0 mm 0.00 in0.0 mm 0.00 in0.0 mm
02:00 AM 50.9°F10.5°C 47.8°F8.8°C 89% 6.7 mph SE10.8 kmh SE 9.7 mph15.6 kmh 30.09 in1019.0 mb 0.00 in0.0 mm 0.00 in0.0 mm 0.00 in0.0 mm
02:10 AM 51.1°F10.6°C 48.0°F8.9°C 89% 4.3 mph ESE6.9 kmh ESE 7.9 mph12.7 kmh 30.09 in1019.0 mb 0.00 in0.0 mm 0.00 in0.0 mm 0.00 in0.0 mm
02:20 AM 50.9°F10.5°C 47.5°F8.6°C 88% 0.5 mph E0.8 kmh E 6.4 mph10.3 kmh 30.09 in1019.0 mb 0.00 in0.0 mm 0.00 in0.0 mm 0.00 in0.0 mm
02:30 AM 50.7°F10.4°C 47.3°F8.5°C 88% 3.9 mph ESE6.3 kmh ESE 7.5 mph12.1 kmh 30.09 in1019.0 mb 0.00 in0.0 mm 0.00 in0.0 mm 0.00 in0.0 mm
02:40 AM 50.7°F10.4°C 47.3°F8.5°C 88% Calm Calm -- 30.07 in1018.3 mb 0.00 in0.0 mm 0.00 in0.0 mm 0.00 in0.0 mm
02:50 AM 50.5°F10.3°C 47.1°F8.4°C 88% 1.7 mph SE2.7 kmh SE 5.7 mph9.2 kmh 30.07 in1018.3 mb 0.00 in0.0 mm 0.00 in0.0 mm 0.00 in0.0 mm
03:00 AM 50.4°F10.2°C 46.9°F8.3°C 88% 2.7 mph E4.3 kmh E 4.3 mph6.9 kmh 30.09 in1019.0 mb 0.00 in0.0 mm 0.00 in0.0 mm 0.00 in0.0 mm
03:10 AM 50.4°F10.2°C 46.9°F8.3°C 88% 0.5 mph E0.8 kmh E 6.1 mph9.8 kmh 30.07 in1018.3 mb 0.00 in0.0 mm 0.00 in0.0 mm 0.00 in0.0 mm
03:20 AM 50.4°F10.2°C 46.9°F8.3°C 88% 0.5 mph ESE0.8 kmh ESE 4.3 mph6.9 kmh 30.07 in1018.3 mb 0.00 in0.0 mm 0.00 in0.0 mm 0.00 in0.0 mm
03:30 AM 50.4°F10.2°C 46.9°F8.3°C 88% Calm Calm -- 30.09 in1019.0 mb 0.00 in0.0 mm 0.00 in0.0 mm 0.00 in0.0 mm
03:40 AM 50.0°F10.0°C 46.6°F8.1°C 88% Calm Calm -- 30.07 in1018.3 mb 0.00 in0.0 mm 0.00 in0.0 mm 0.00 in0.0 mm
03:50 AM 49.6°F9.8°C 46.2°F7.9°C 88% Calm Calm -- 30.07 in1018.3 mb 0.00 in0.0 mm 0.00 in0.0 mm 0.00 in0.0 mm
04:00 AM 49.6°F9.8°C 46.2°F7.9°C 88% Calm Calm -- 30.07 in1018.3 mb 0.00 in0.0 mm 0.00 in0.0 mm 0.00 in0.0 mm
04:10 AM 49.3°F9.6°C 45.9°F7.7°C 88% Calm Calm -- 30.09 in1019.0 mb 0.00 in0.0 mm 0.00 in0.0 mm 0.00 in0.0 mm
04:20 AM 49.1°F9.5°C 45.7°F7.6°C 88% Calm Calm -- 30.09 in1019.0 mb 0.00 in0.0 mm 0.00 in0.0 mm 0.00 in0.0 mm
04:30 AM 48.7°F9.3°C 45.0°F7.2°C 87% Calm Calm -- 30.09 in1019.0 mb 0.00 in0.0 mm 0.00 in0.0 mm 0.00 in0.0 mm
04:40 AM 48.7°F9.3°C 45.3°F7.4°C 88% Calm Calm -- 30.09 in1019.0 mb 0.00 in0.0 mm 0.00 in0.0 mm 0.00 in0.0 mm
04:50 AM 48.7°F9.3°C 45.3°F7.4°C 88% 1.6 mph E2.6 kmh E 3.2 mph5.1 kmh 30.09 in1019.0 mb 0.00 in0.0 mm 0.00 in0.0 mm 0.00 in0.0 mm
05:00 AM 48.6°F9.2°C 45.2°F7.3°C 88% Calm Calm -- 30.12 in1020.0 mb 0.00 in0.0 mm 0.00 in0.0 mm 0.00 in0.0 mm
05:10 AM 48.2°F9.0°C 44.8°F7.1°C 88% Calm Calm -- 30.12 in1020.0 mb 0.00 in0.0 mm 0.00 in0.0 mm 0.00 in0.0 mm
05:20 AM 48.2°F9.0°C 44.8°F7.1°C 88% Calm Calm -- 30.12 in1020.0 mb 0.00 in0.0 mm 0.00 in0.0 mm 0.00 in0.0 mm
05:30 AM 48.0°F8.9°C 44.6°F7.0°C 88% Calm Calm -- 30.12 in1020.0 mb 0.00 in0.0 mm 0.00 in0.0 mm 0.00 in0.0 mm
05:40 AM 47.8°F8.8°C 44.5°F6.9°C 88% Calm Calm -- 30.12 in1020.0 mb 0.00 in0.0 mm 0.00 in0.0 mm 0.00 in0.0 mm
05:50 AM 48.0°F8.9°C 44.6°F7.0°C 88% Calm Calm -- 30.12 in1020.0 mb 0.00 in0.0 mm 0.00 in0.0 mm 0.00 in0.0 mm
06:00 AM 48.2°F9.0°C 45.1°F7.3°C 89% Calm Calm -- 30.12 in1020.0 mb 0.00 in0.0 mm 0.00 in0.0 mm 0.00 in0.0 mm
06:10 AM 48.4°F9.1°C 45.3°F7.4°C 89% Calm Calm -- 30.12 in1020.0 mb 0.00 in0.0 mm 0.00 in0.0 mm 0.00 in0.0 mm
06:20 AM 48.7°F9.3°C 45.9°F7.7°C 90% Calm Calm -- 30.12 in1020.0 mb 0.00 in0.0 mm 0.00 in0.0 mm 0.00 in0.0 mm
06:30 AM 49.3°F9.6°C 46.5°F8.1°C 90% Calm Calm -- 30.12 in1020.0 mb 0.00 in0.0 mm 0.00 in0.0 mm 0.00 in0.0 mm
06:40 AM 49.8°F9.9°C 47.0°F8.3°C 90% Calm Calm -- 30.12 in1020.0 mb 0.00 in0.0 mm 0.00 in0.0 mm 0.00 in0.0 mm
06:50 AM 50.2°F10.1°C 47.7°F8.7°C 91% Calm Calm -- 30.12 in1020.0 mb 0.00 in0.0 mm 0.00 in0.0 mm 0.00 in0.0 mm
07:00 AM 50.7°F10.4°C 48.2°F9.0°C 91% Calm Calm -- 30.12 in1020.0 mb 0.00 in0.0 mm 0.00 in0.0 mm 0.00 in0.0 mm
07:10 AM 51.3°F10.7°C 48.7°F9.3°C 91% Calm Calm -- 30.15 in1021.0 mb 0.00 in0.0 mm 0.00 in0.0 mm 0.00 in0.0 mm
07:20 AM 51.8°F11.0°C 49.5°F9.7°C 92% Calm Calm -- 30.15 in1021.0 mb 0.00 in0.0 mm 0.00 in0.0 mm 0.00 in0.0 mm
07:30 AM 52.7°F11.5°C 50.4°F10.2°C 92% Calm Calm -- 30.12 in1020.0 mb 0.00 in0.0 mm 0.00 in0.0 mm 0.00 in0.0 mm
07:40 AM 54.0°F12.2°C 51.7°F10.9°C 92% Calm Calm -- 30.12 in1020.0 mb 0.00 in0.0 mm 0.00 in0.0 mm 0.00 in0.0 mm
07:50 AM 54.9°F12.7°C 52.6°F11.4°C 92% Calm Calm -- 30.12 in1020.0 mb 0.00 in0.0 mm 0.00 in0.0 mm 0.00 in0.0 mm
08:00 AM 55.6°F13.1°C 53.0°F11.7°C 91% Calm Calm -- 30.15 in1021.0 mb 0.00 in0.0 mm 0.00 in0.0 mm 0.00 in0.0 mm
08:10 AM 56.5°F13.6°C 53.9°F12.2°C 91% Calm Calm -- 30.12 in1020.0 mb 0.00 in0.0 mm 0.00 in0.0 mm 0.00 in0.0 mm
08:20 AM 57.2°F14.0°C 54.6°F12.6°C 91% 0.8 mph E1.3 kmh E 1.4 mph2.3 kmh 30.12 in1020.0 mb 0.00 in0.0 mm 0.00 in0.0 mm 0.00 in0.0 mm
08:30 AM 57.9°F14.4°C 55.0°F12.8°C 90% 1.2 mph E1.9 kmh E 1.4 mph2.3 kmh 30.12 in1020.0 mb 0.00 in0.0 mm 0.00 in0.0 mm 0.00 in0.0 mm
08:40 AM 57.9°F14.4°C 55.0°F12.8°C 90% 1.2 mph E1.9 kmh E 1.4 mph2.3 kmh 30.12 in1020.0 mb 0.00 in0.0 mm 0.00 in0.0 mm 0.00 in0.0 mm
08:50 AM 57.9°F14.4°C 54.7°F12.6°C 89% 1.2 mph E1.9 kmh E 1.4 mph2.3 kmh 30.12 in1020.0 mb 0.00 in0.0 mm 0.00 in0.0 mm 0.00 in0.0 mm
09:00 AM 57.6°F14.2°C 54.0°F12.2°C 88% 1.2 mph E1.9 kmh E 1.4 mph2.3 kmh 30.09 in1019.0 mb 0.00 in0.0 mm 0.00 in0.0 mm 0.00 in0.0 mm
09:10 AM 57.7°F14.3°C 54.2°F12.3°C 88% 2.6 mph E4.2 kmh E 3.2 mph5.1 kmh 30.09 in1019.0 mb 0.00 in0.0 mm 0.00 in0.0 mm 0.00 in0.0 mm
09:20 AM 58.3°F14.6°C 55.1°F12.8°C 89% 1.7 mph E2.7 kmh E 3.9 mph6.3 kmh 30.09 in1019.0 mb 0.00 in0.0 mm 0.00 in0.0 mm 0.00 in0.0 mm
09:30 AM 59.0°F15.0°C 55.8°F13.2°C 89% 2.7 mph E4.3 kmh E 3.9 mph6.3 kmh 30.09 in1019.0 mb 0.00 in0.0 mm 0.00 in0.0 mm 0.00 in0.0 mm
09:40 AM 59.4°F15.2°C 56.1°F13.4°C 89% 0.7 mph E1.1 kmh E 3.6 mph5.8 kmh 30.12 in1020.0 mb 0.00 in0.0 mm 0.00 in0.0 mm 0.00 in0.0 mm
09:50 AM 59.7°F15.4°C 55.8°F13.2°C 87% 0.9 mph E1.4 kmh E 3.6 mph5.8 kmh 30.12 in1020.0 mb 0.00 in0.0 mm 0.00 in0.0 mm 0.00 in0.0 mm
10:00 AM 60.3°F15.7°C 56.4°F13.6°C 87% 2.4 mph E3.9 kmh E 5.7 mph9.2 kmh 30.12 in1020.0 mb 0.00 in0.0 mm 0.00 in0.0 mm 0.00 in0.0 mm
10:10 AM 60.4°F15.8°C 56.2°F13.4°C 86% 4.7 mph E7.6 kmh E 5.7 mph9.2 kmh 30.12 in1020.0 mb 0.00 in0.0 mm 0.00 in0.0 mm 0.00 in0.0 mm
10:20 AM 60.4°F15.8°C 55.9°F13.3°C 85% 4.7 mph E7.6 kmh E 5.7 mph9.2 kmh 30.12 in1020.0 mb 0.00 in0.0 mm 0.00 in0.0 mm 0.00 in0.0 mm
10:30 AM 60.6°F15.9°C 55.4°F13.0°C 83% 4.7 mph E7.6 kmh E 5.7 mph9.2 kmh 30.12 in1020.0 mb 0.00 in0.0 mm 0.00 in0.0 mm 0.00 in0.0 mm
10:40 AM 61.2°F16.2°C 56.0°F13.3°C 83% Calm Calm -- 30.12 in1020.0 mb 0.00 in0.0 mm 0.00 in0.0 mm 0.00 in0.0 mm
10:50 AM 61.9°F16.6°C 56.7°F13.7°C 83% 1.2 mph E1.9 kmh E 7.2 mph11.6 kmh 30.12 in1020.0 mb 0.00 in0.0 mm 0.00 in0.0 mm 0.00 in0.0 mm
11:00 AM 62.1°F16.7°C 55.8°F13.2°C 80% 2.1 mph N3.4 kmh N 5.0 mph8.0 kmh 30.09 in1019.0 mb 0.00 in0.0 mm 0.00 in0.0 mm 0.00 in0.0 mm
11:10 AM 62.1°F16.7°C 55.5°F13.1°C 79% 1.0 mph ENE1.6 kmh ENE 3.6 mph5.8 kmh 30.12 in1020.0 mb 0.00 in0.0 mm 0.00 in0.0 mm 0.00 in0.0 mm
11:20 AM 62.6°F17.0°C 55.6°F13.1°C 78% 0.8 mph NE1.3 kmh NE 6.1 mph9.8 kmh 30.12 in1020.0 mb 0.00 in0.0 mm 0.00 in0.0 mm 0.00 in0.0 mm
11:30 AM 62.6°F17.0°C 54.6°F12.6°C 75% 1.5 mph N2.4 kmh N 6.8 mph10.9 kmh 30.12 in1020.0 mb 0.00 in0.0 mm 0.00 in0.0 mm 0.00 in0.0 mm
11:40 AM 62.8°F17.1°C 54.4°F12.4°C 74% Calm Calm -- 30.12 in1020.0 mb 0.00 in0.0 mm 0.00 in0.0 mm 0.00 in0.0 mm
11:50 AM 63.1°F17.3°C 54.7°F12.6°C 74% 0.1 mph N0.2 kmh N 1.8 mph2.9 kmh 30.12 in1020.0 mb 0.00 in0.0 mm 0.00 in0.0 mm 0.00 in0.0 mm
12:00 PM 63.7°F17.6°C 54.9°F12.7°C 73% 0.2 mph E0.3 kmh E 3.2 mph5.1 kmh 30.12 in1020.0 mb 0.00 in0.0 mm 0.00 in0.0 mm 0.00 in0.0 mm
12:10 PM 64.4°F18.0°C 55.9°F13.3°C 74% 0.8 mph E1.3 kmh E 5.7 mph9.2 kmh 30.15 in1021.0 mb 0.00 in0.0 mm 0.00 in0.0 mm 0.00 in0.0 mm
12:20 PM 64.9°F18.3°C 54.9°F12.7°C 70% 3.2 mph E5.1 kmh E 10.4 mph16.7 kmh 30.15 in1021.0 mb 0.00 in0.0 mm 0.00 in0.0 mm 0.00 in0.0 mm
12:30 PM 65.3°F18.5°C 55.7°F13.2°C 71% 3.4 mph E5.5 kmh E 9.7 mph15.6 kmh 30.12 in1020.0 mb 0.00 in0.0 mm 0.00 in0.0 mm 0.00 in0.0 mm
12:40 PM 65.7°F18.7°C 56.0°F13.3°C 71% 3.6 mph E5.8 kmh E 9.7 mph15.6 kmh 30.15 in1021.0 mb 0.00 in0.0 mm 0.00 in0.0 mm 0.00 in0.0 mm
12:50 PM 65.8°F18.8°C 55.4°F13.0°C 69% 4.6 mph E7.4 kmh E 11.8 mph19.0 kmh 30.15 in1021.0 mb 0.00 in0.0 mm 0.00 in0.0 mm 0.00 in0.0 mm
01:00 PM 66.0°F18.9°C 55.2°F12.9°C 68% 2.5 mph E4.0 kmh E 9.3 mph15.0 kmh 30.12 in1020.0 mb 0.00 in0.0 mm 0.00 in0.0 mm 0.00 in0.0 mm
01:10 PM 66.0°F18.9°C 54.3°F12.4°C 66% 3.4 mph E5.5 kmh E 10.4 mph16.7 kmh 30.12 in1020.0 mb 0.00 in0.0 mm 0.00 in0.0 mm 0.00 in0.0 mm
01:20 PM 65.8°F18.8°C 54.2°F12.3°C 66% 2.1 mph E3.4 kmh E 10.0 mph16.1 kmh 30.12 in1020.0 mb 0.00 in0.0 mm 0.00 in0.0 mm 0.00 in0.0 mm
01:30 PM 65.8°F18.8°C 53.7°F12.1°C 65% 1.9 mph E3.1 kmh E 5.4 mph8.7 kmh 30.12 in1020.0 mb 0.00 in0.0 mm 0.00 in0.0 mm 0.00 in0.0 mm
01:40 PM 65.8°F18.8°C 53.7°F12.1°C 65% 1.2 mph ENE1.9 kmh ENE 4.3 mph6.9 kmh 30.12 in1020.0 mb 0.00 in0.0 mm 0.00 in0.0 mm 0.00 in0.0 mm
01:50 PM 66.0°F18.9°C 53.9°F12.2°C 65% 5.0 mph E8.0 kmh E 10.4 mph16.7 kmh 30.12 in1020.0 mb 0.00 in0.0 mm 0.00 in0.0 mm 0.00 in0.0 mm
02:00 PM 66.0°F18.9°C 53.9°F12.2°C 65% 3.4 mph E5.5 kmh E 5.0 mph8.0 kmh 30.12 in1020.0 mb 0.00 in0.0 mm 0.00 in0.0 mm 0.00 in0.0 mm
02:10 PM 66.0°F18.9°C 53.9°F12.2°C 65% Calm Calm -- 30.12 in1020.0 mb 0.00 in0.0 mm 0.00 in0.0 mm 0.00 in0.0 mm
02:20 PM 65.7°F18.7°C 53.1°F11.7°C 64% Calm Calm -- 30.12 in1020.0 mb 0.00 in0.0 mm 0.00 in0.0 mm 0.00 in0.0 mm
02:30 PM 65.5°F18.6°C 53.0°F11.7°C 64% Calm Calm -- 30.12 in1020.0 mb 0.00 in0.0 mm 0.00 in0.0 mm 0.00 in0.0 mm
02:40 PM 65.3°F18.5°C 52.8°F11.6°C 64% 0.5 mph E0.8 kmh E 1.4 mph2.3 kmh 30.12 in1020.0 mb 0.00 in0.0 mm 0.00 in0.0 mm 0.00 in0.0 mm
02:50 PM 65.1°F18.4°C 52.6°F11.4°C 64% 1.2 mph E1.9 kmh E 1.4 mph2.3 kmh 30.12 in1020.0 mb 0.00 in0.0 mm 0.00 in0.0 mm 0.00 in0.0 mm
03:00 PM 64.9°F18.3°C 52.9°F11.6°C 65% 2.1 mph ESE3.4 kmh ESE 3.2 mph5.1 kmh 30.15 in1021.0 mb 0.00 in0.0 mm 0.00 in0.0 mm 0.00 in0.0 mm
03:10 PM 64.6°F18.1°C 53.0°F11.7°C 66% 2.6 mph ESE4.2 kmh ESE 3.2 mph5.1 kmh 30.09 in1019.0 mb 0.00 in0.0 mm 0.00 in0.0 mm 0.00 in0.0 mm
03:20 PM 64.4°F18.0°C 53.2°F11.8°C 67% 2.6 mph ESE4.2 kmh ESE 3.2 mph5.1 kmh 30.09 in1019.0 mb 0.00 in0.0 mm 0.00 in0.0 mm 0.00 in0.0 mm
03:30 PM 64.0°F17.8°C 52.9°F11.6°C 67% Calm Calm -- 30.12 in1020.0 mb 0.00 in0.0 mm 0.00 in0.0 mm 0.00 in0.0 mm
03:40 PM 63.9°F17.7°C 53.1°F11.7°C 68% Calm Calm -- 30.09 in1019.0 mb 0.00 in0.0 mm 0.00 in0.0 mm 0.00 in0.0 mm
03:50 PM 63.5°F17.5°C 53.1°F11.7°C 69% Calm Calm -- 30.09 in1019.0 mb 0.00 in0.0 mm 0.00 in0.0 mm 0.00 in0.0 mm
04:00 PM 63.3°F17.4°C 53.4°F11.9°C 70% 0.4 mph S0.6 kmh S 1.4 mph2.3 kmh 30.09 in1019.0 mb 0.00 in0.0 mm 0.00 in0.0 mm 0.00 in0.0 mm
04:10 PM 63.0°F17.2°C 53.4°F11.9°C 71% Calm Calm -- 30.09 in1019.0 mb 0.00 in0.0 mm 0.00 in0.0 mm 0.00 in0.0 mm
04:20 PM 62.8°F17.1°C 53.6°F12.0°C 72% Calm Calm -- 30.09 in1019.0 mb 0.00 in0.0 mm 0.00 in0.0 mm 0.00 in0.0 mm
04:30 PM 62.6°F17.0°C 53.8°F12.1°C 73% Calm Calm -- 30.09 in1019.0 mb 0.00 in0.0 mm 0.00 in0.0 mm 0.00 in0.0 mm
04:40 PM 62.4°F16.9°C 54.4°F12.4°C 75% Calm Calm -- 30.12 in1020.0 mb 0.00 in0.0 mm 0.00 in0.0 mm 0.00 in0.0 mm
04:50 PM 62.1°F16.7°C 54.0°F12.2°C 75% Calm Calm -- 30.12 in1020.0 mb 0.00 in0.0 mm 0.00 in0.0 mm 0.00 in0.0 mm
05:00 PM 61.7°F16.5°C 53.7°F12.1°C 75% Calm Calm -- 30.15 in1021.0 mb 0.00 in0.0 mm 0.00 in0.0 mm 0.00 in0.0 mm
05:10 PM 61.5°F16.4°C 53.9°F12.2°C 76% Calm Calm -- 30.12 in1020.0 mb 0.00 in0.0 mm 0.00 in0.0 mm 0.00 in0.0 mm
05:20 PM 61.3°F16.3°C 53.7°F12.1°C 76% Calm Calm -- 30.12 in1020.0 mb 0.00 in0.0 mm 0.00 in0.0 mm 0.00 in0.0 mm
05:30 PM 61.2°F16.2°C 53.5°F11.9°C 76% Calm Calm -- 30.12 in1020.0 mb 0.00 in0.0 mm 0.00 in0.0 mm 0.00 in0.0 mm
05:40 PM 61.0°F16.1°C 53.7°F12.1°C 77% Calm Calm -- 30.12 in1020.0 mb 0.00 in0.0 mm 0.00 in0.0 mm 0.00 in0.0 mm
05:50 PM 60.8°F16.0°C 53.5°F11.9°C 77% Calm Calm -- 30.12 in1020.0 mb 0.00 in0.0 mm 0.00 in0.0 mm 0.00 in0.0 mm
06:00 PM 60.6°F15.9°C 53.4°F11.9°C 77% Calm Calm -- 30.12 in1020.0 mb 0.00 in0.0 mm 0.00 in0.0 mm 0.00 in0.0 mm
06:10 PM 60.4°F15.8°C 53.5°F11.9°C 78% Calm Calm -- 30.12 in1020.0 mb 0.00 in0.0 mm 0.00 in0.0 mm 0.00 in0.0 mm
06:20 PM 60.3°F15.7°C 53.4°F11.9°C 78% Calm Calm -- 30.12 in1020.0 mb 0.00 in0.0 mm 0.00 in0.0 mm 0.00 in0.0 mm
06:30 PM 60.1°F15.6°C 53.5°F11.9°C 79% 1.2 mph NE1.9 kmh NE 5.0 mph8.0 kmh 30.12 in1020.0 mb 0.00 in0.0 mm 0.00 in0.0 mm 0.00 in0.0 mm
06:40 PM 59.9°F15.5°C 53.4°F11.9°C 79% 4.5 mph E7.2 kmh E 16.5 mph26.6 kmh 30.09 in1019.0 mb 0.00 in0.0 mm 0.00 in0.0 mm 0.00 in0.0 mm
06:50 PM 59.7°F15.4°C 52.8°F11.6°C 78% 4.5 mph E7.2 kmh E 12.2 mph19.6 kmh 30.09 in1019.0 mb 0.00 in0.0 mm 0.00 in0.0 mm 0.00 in0.0 mm
07:00 PM 59.4°F15.2°C 52.5°F11.4°C 78% 3.7 mph E6.0 kmh E 12.2 mph19.6 kmh 30.12 in1020.0 mb 0.00 in0.0 mm 0.00 in0.0 mm 0.00 in0.0 mm
07:10 PM 59.0°F15.0°C 52.1°F11.2°C 78% 2.5 mph E4.0 kmh E 8.9 mph14.3 kmh 30.12 in1020.0 mb 0.00 in0.0 mm 0.00 in0.0 mm 0.00 in0.0 mm
07:20 PM 58.8°F14.9°C 52.3°F11.3°C 79% 1.5 mph E2.4 kmh E 6.4 mph10.3 kmh 30.12 in1020.0 mb 0.00 in0.0 mm 0.00 in0.0 mm 0.00 in0.0 mm
07:30 PM 58.6°F14.8°C 52.1°F11.2°C 79% 0.2 mph E0.3 kmh E 4.3 mph6.9 kmh 30.09 in1019.0 mb 0.00 in0.0 mm 0.00 in0.0 mm 0.00 in0.0 mm
07:40 PM 58.5°F14.7°C 52.0°F11.1°C 79% 3.1 mph E5.0 kmh E 7.9 mph12.7 kmh 30.12 in1020.0 mb 0.00 in0.0 mm 0.00 in0.0 mm 0.00 in0.0 mm
07:50 PM 58.5°F14.7°C 52.0°F11.1°C 79% 0.2 mph E0.3 kmh E 4.7 mph7.6 kmh 30.12 in1020.0 mb 0.00 in0.0 mm 0.00 in0.0 mm 0.00 in0.0 mm
08:00 PM 58.3°F14.6°C 52.1°F11.2°C 80% 0.6 mph E1.0 kmh E 3.6 mph5.8 kmh 30.12 in1020.0 mb 0.00 in0.0 mm 0.00 in0.0 mm 0.00 in0.0 mm
08:10 PM 58.1°F14.5°C 52.0°F11.1°C 80% Calm Calm -- 30.12 in1020.0 mb 0.00 in0.0 mm 0.00 in0.0 mm 0.00 in0.0 mm
08:20 PM 58.1°F14.5°C 52.0°F11.1°C 80% Calm Calm -- 30.12 in1020.0 mb 0.00 in0.0 mm 0.00 in0.0 mm 0.00 in0.0 mm
08:30 PM 57.9°F14.4°C 52.1°F11.2°C 81% Calm Calm -- 30.09 in1019.0 mb 0.00 in0.0 mm 0.00 in0.0 mm 0.00 in0.0 mm
08:40 PM 57.7°F14.3°C 51.9°F11.1°C 81% Calm Calm -- 30.12 in1020.0 mb 0.00 in0.0 mm 0.00 in0.0 mm 0.00 in0.0 mm
08:50 PM 57.7°F14.3°C 51.9°F11.1°C 81% Calm Calm -- 30.12 in1020.0 mb 0.00 in0.0 mm 0.00 in0.0 mm 0.00 in0.0 mm
09:00 PM 57.6°F14.2°C 51.8°F11.0°C 81% Calm Calm -- 30.15 in1021.0 mb 0.00 in0.0 mm 0.00 in0.0 mm 0.00 in0.0 mm
09:10 PM 57.6°F14.2°C 51.8°F11.0°C 81% 0.2 mph ENE0.3 kmh ENE 1.8 mph2.9 kmh 30.12 in1020.0 mb 0.00 in0.0 mm 0.00 in0.0 mm 0.00 in0.0 mm
09:20 PM 57.6°F14.2°C 51.8°F11.0°C 81% 0.1 mph ENE0.2 kmh ENE 1.4 mph2.3 kmh 30.12 in1020.0 mb 0.00 in0.0 mm 0.00 in0.0 mm 0.00 in0.0 mm
09:30 PM 57.4°F14.1°C 51.6°F10.9°C 81% Calm Calm -- 30.12 in1020.0 mb 0.00 in0.0 mm 0.00 in0.0 mm 0.00 in0.0 mm
09:40 PM 57.4°F14.1°C 51.6°F10.9°C 81% Calm Calm -- 30.12 in1020.0 mb 0.00 in0.0 mm 0.00 in0.0 mm 0.00 in0.0 mm
09:50 PM 57.2°F14.0°C 51.4°F10.8°C 81% Calm Calm -- 30.12 in1020.0 mb 0.00 in0.0 mm 0.00 in0.0 mm 0.00 in0.0 mm
10:00 PM 57.2°F14.0°C 51.4°F10.8°C 81% Calm Calm -- 30.09 in1019.0 mb 0.00 in0.0 mm 0.00 in0.0 mm 0.00 in0.0 mm
10:10 PM 57.0°F13.9°C 51.6°F10.9°C 82% Calm Calm -- 30.09 in1019.0 mb 0.00 in0.0 mm 0.00 in0.0 mm 0.00 in0.0 mm
10:20 PM 57.0°F13.9°C 51.6°F10.9°C 82% Calm Calm -- 30.09 in1019.0 mb 0.00 in0.0 mm 0.00 in0.0 mm 0.00 in0.0 mm
10:30 PM 57.0°F13.9°C 51.6°F10.9°C 82% Calm Calm -- 30.09 in1019.0 mb 0.00 in0.0 mm 0.00 in0.0 mm 0.00 in0.0 mm
10:40 PM 57.0°F13.9°C 51.6°F10.9°C 82% Calm Calm -- 30.09 in1019.0 mb 0.00 in0.0 mm 0.00 in0.0 mm 0.00 in0.0 mm
10:50 PM 57.0°F13.9°C 51.6°F10.9°C 82% Calm Calm -- 30.09 in1019.0 mb 0.00 in0.0 mm 0.00 in0.0 mm 0.00 in0.0 mm
11:00 PM 56.8°F13.8°C 51.4°F10.8°C 82% Calm Calm -- 30.09 in1019.0 mb 0.00 in0.0 mm 0.00 in0.0 mm 0.00 in0.0 mm
11:10 PM 56.8°F13.8°C 51.4°F10.8°C 82% Calm Calm -- 30.09 in1019.0 mb 0.00 in0.0 mm 0.00 in0.0 mm 0.00 in0.0 mm
11:20 PM 56.8°F13.8°C 51.4°F10.8°C 82% Calm Calm -- 30.09 in1019.0 mb 0.00 in0.0 mm 0.00 in0.0 mm 0.00 in0.0 mm
11:30 PM 56.8°F13.8°C 51.7°F10.9°C 83% Calm Calm -- 30.09 in1019.0 mb 0.00 in0.0 mm 0.00 in0.0 mm 0.00 in0.0 mm
11:40 PM 56.7°F13.7°C 51.6°F10.9°C 83% Calm Calm -- 30.09 in1019.0 mb 0.00 in0.0 mm 0.00 in0.0 mm 0.00 in0.0 mm
11:50 PM 56.7°F13.7°C 51.6°F10.9°C 83% Calm Calm -- 30.09 in1019.0 mb 0.00 in0.0 mm 0.00 in0.0 mm 0.00 in0.0 mm